Airfield :
LOGIN :

Register | Disclaimer

   EN    FR    IT 

 










Legend :    VFR   Marginal VFR   IFR   Intensive IFR   Very Intensive IFR
Visi :
Ceiling :
>= 8 km
>= 3000ft
5 to 8 km
1000 to 3000 ft
1500m to 5 km
500 to 1000 ft
800 to 1500m
200 to 500 ft
< 800m
< 200 ft
Symbols :   Thunderstorms  Fog  Heavy snow  Heavy precipitations  Wind > 20 kt
SIGMETs :     Misc.  Thunderstorms  Icing  Turbulence  Mountain Waves  Volcanic Ashes






- Airport Elevation : 935 ft


EBFS - Florennes

CURRENT METAR :
  • 171825Z AUTO 25012KT 9999 BKN220/// 05/02 Q1019 BLU

EXPIRED METARs :
  • 171755Z AUTO 25012KT 9999 BKN210/// 06/02 Q1019 BLU
  • 171725Z AUTO 25010KT 9999 BKN210/// 06/03 Q1018 BLU
  • 171655Z AUTO 25013KT 9999 BKN210/// 06/03 Q1018 BLU
  • 171643Z AUTO 25014KT 9999 FEW012/// SCT080/// BKN210/// 06/03 Q1018 BLU
  • 171625Z AUTO 25014KT 9999 FEW012/// SCT021/// BKN038/// 06/03 Q1017 WHT
  • 171608Z AUTO 26014G25KT 7000 -RA FEW017/// SCT026/// BKN034/// 06/04 Q1017 WHT
  • 171555Z AUTO 23011KT 9999 FEW024/// SCT032/// BKN044/// 08/04 Q1017 BLU

TAF TAF EBFS
Valid from the 17 at 13:00 until the 17 at 22:00 UTC


171141Z 1713/1722 24015KT 9999 BKN008 BKN010
BECMG 1713/1715 9999 SCT018 BKN028
TEMPO 1714/1722 24015G25KT 7000 -SHRA SCT015 BKN025



MET'MAP, your aeronautical weather chart ! - Copyright ORBIFLY December 2007 - Disclaimer

ORBIFLY MET'MAP TEAM :

Programming & Development : Alexandra Zaïnal
Concept & original design : Baudouin d'Aumeries
Assistance for programming : Marc-Olivier Méhu
Technical & hardware support : Manuel Goepfert

Contact : metmap@orbifly.com




SOURCES & CREDITS :

   NOAA